Time;durP1;ratioP1;P1;durP2;ratioP2;P2;SDS_P1;SDS_P2;PMS_P1;PMS_P2;Temp;Humidity;BMP_temperature;BMP_pressure;BME280_temperature;BME280_humidity;BME280_pressure;Samples;Min_cycle;Max_cycle;Signal;HPM_P1;HPM_P2
2022/03/02 00:02:11;;;;;;;1.92;1.82;;;;;;;;;;1853287;76;26334;-48
2022/03/02 00:04:38;;;;;;;1.52;1.42;;;;;;;;;;1854164;77;26410;-47
2022/03/02 00:07:05;;;;;;;1.77;1.60;;;;;;;;;;1853130;76;26288;-49
2022/03/02 00:09:33;;;;;;;2.08;1.55;;;;;;;;;;1848879;77;26377;-47
2022/03/02 00:12:00;;;;;;;1.50;1.40;;;;;;;;;;1847877;77;26252;-46
2022/03/02 00:14:28;;;;;;;1.30;1.30;;;;;;;;;;1848826;76;26281;-47
2022/03/02 00:16:55;;;;;;;1.67;1.57;;;;;;;;;;1849645;76;26806;-48
2022/03/02 00:19:22;;;;;;;1.70;1.60;;;;;;;;;;1846783;77;26294;-46
2022/03/02 00:21:50;;;;;;;1.50;1.50;;;;;;;;;;1848493;77;26288;-46
2022/03/02 00:24:17;;;;;;;1.42;1.42;;;;;;;;;;1848005;77;26374;-46
2022/03/02 00:26:44;;;;;;;1.40;1.40;;;;;;;;;;1845387;76;26311;-48
2022/03/02 00:29:12;;;;;;;1.55;1.45;;;;;;;;;;1846844;77;26707;-47
2022/03/02 00:31:40;;;;;;;1.40;1.40;;;;;;;;;;1849317;77;26696;-48
2022/03/02 00:34:07;;;;;;;1.45;1.45;;;;;;;;;;1830676;77;26822;-47
2022/03/02 00:36:35;;;;;;;1.32;1.32;;;;;;;;;;1848892;77;26346;-49
2022/03/02 00:39:02;;;;;;;1.50;1.50;;;;;;;;;;1846815;77;26777;-47
2022/03/02 00:41:30;;;;;;;1.42;1.40;;;;;;;;;;1847857;77;26252;-47
2022/03/02 00:43:57;;;;;;;1.30;1.30;;;;;;;;;;1848591;76;26256;-46
2022/03/02 00:46:29;;;;;;;1.32;1.32;;;;;;;;;;1847885;77;26212;-47
2022/03/02 00:48:54;;;;;;;1.55;1.45;;;;;;;;;;1835338;77;26229;-46
2022/03/02 00:51:21;;;;;;;1.45;1.42;;;;;;;;;;1846769;77;26275;-46
2022/03/02 00:53:49;;;;;;;1.67;1.57;;;;;;;;;;1846588;77;26342;-47
2022/03/02 00:56:16;;;;;;;1.57;1.52;;;;;;;;;;1846723;77;25667;-47
2022/03/02 00:58:43;;;;;;;1.65;1.55;;;;;;;;;;1848158;77;26696;-46
2022/03/02 01:01:11;;;;;;;1.30;1.30;;;;;;;;;;1848472;77;26654;-46
2022/03/02 01:03:38;;;;;;;1.35;1.35;;;;;;;;;;1849077;77;26345;-48
2022/03/02 01:06:05;;;;;;;3.20;1.50;;;;;;;;;;1846524;77;26322;-49
2022/03/02 01:08:33;;;;;;;1.55;1.50;;;;;;;;;;1845998;77;26786;-49
2022/03/02 01:11:01;;;;;;;1.40;1.40;;;;;;;;;;1848851;77;26312;-47
2022/03/02 01:13:28;;;;;;;1.47;1.47;;;;;;;;;;1848032;76;25913;-47
2022/03/02 01:15:56;;;;;;;1.40;1.40;;;;;;;;;;1834422;77;26279;-47
2022/03/02 01:18:23;;;;;;;1.30;1.30;;;;;;;;;;1848599;77;26361;-48
2022/03/02 01:20:50;;;;;;;1.65;1.55;;;;;;;;;;1846568;77;26291;-48
2022/03/02 01:23:17;;;;;;;1.42;1.32;;;;;;;;;;1848668;77;26817;-49
2022/03/02 01:25:45;;;;;;;1.60;1.50;;;;;;;;;;1849141;77;26279;-47
2022/03/02 01:28:12;;;;;;;1.50;1.50;;;;;;;;;;1848922;77;26260;-47
2022/03/02 01:30:39;;;;;;;1.65;1.60;;;;;;;;;;1849461;77;26371;-46
2022/03/02 01:33:07;;;;;;;1.30;1.30;;;;;;;;;;1849104;77;26728;-48
2022/03/02 01:35:34;;;;;;;1.50;1.40;;;;;;;;;;1849281;77;26671;-48
2022/03/02 01:38:02;;;;;;;1.25;1.25;;;;;;;;;;1849133;77;26261;-49
2022/03/02 01:40:29;;;;;;;1.30;1.30;;;;;;;;;;1849137;77;26806;-48
2022/03/02 01:42:56;;;;;;;1.25;1.25;;;;;;;;;;1849141;77;26268;-48
2022/03/02 01:45:24;;;;;;;1.60;1.50;;;;;;;;;;1849069;77;26264;-47
2022/03/02 01:47:51;;;;;;;1.30;1.30;;;;;;;;;;1848822;77;26569;-49
2022/03/02 01:50:19;;;;;;;1.50;1.40;;;;;;;;;;1848068;76;26268;-52
2022/03/02 01:52:46;;;;;;;1.50;1.40;;;;;;;;;;1848588;76;26214;-47
2022/03/02 01:55:14;;;;;;;1.45;1.40;;;;;;;;;;1845548;77;26692;-48
2022/03/02 01:57:42;;;;;;;1.30;1.30;;;;;;;;;;1848364;77;26314;-46
2022/03/02 02:00:11;;;;;;;1.50;1.50;;;;;;;;;;1849098;77;26759;-47
2022/03/02 02:02:38;;;;;;;1.20;1.17;;;;;;;;;;1849186;77;26846;-50
2022/03/02 02:05:05;;;;;;;1.40;1.30;;;;;;;;;;1848561;77;26815;-50
2022/03/02 02:07:33;;;;;;;1.30;1.30;;;;;;;;;;1846808;77;26303;-47
2022/03/02 02:10:00;;;;;;;1.27;1.27;;;;;;;;;;1849117;77;26292;-46
2022/03/02 02:12:27;;;;;;;1.27;1.27;;;;;;;;;;1857812;77;26280;-49
2022/03/02 02:14:55;;;;;;;1.37;1.35;;;;;;;;;;1858271;77;26366;-46
2022/03/02 02:17:22;;;;;;;1.42;1.42;;;;;;;;;;1858083;77;26413;-48
2022/03/02 02:19:50;;;;;;;1.50;1.50;;;;;;;;;;1852082;76;26747;-47
2022/03/02 02:22:17;;;;;;;1.30;1.30;;;;;;;;;;1857692;77;26333;-48
2022/03/02 02:24:44;;;;;;;1.40;1.40;;;;;;;;;;1853885;76;26390;-47
2022/03/02 02:27:16;;;;;;;1.22;1.22;;;;;;;;;;1845720;77;26284;-47
2022/03/02 02:29:43;;;;;;;1.65;1.55;;;;;;;;;;1858033;77;26719;-47
2022/03/02 02:32:10;;;;;;;1.72;1.55;;;;;;;;;;1858286;77;26381;-48
2022/03/02 02:34:38;;;;;;;1.32;1.30;;;;;;;;;;1857511;76;26263;-47
2022/03/02 02:37:06;;;;;;;1.37;1.27;;;;;;;;;;1857573;77;26260;-47
2022/03/02 02:39:35;;;;;;;1.50;1.40;;;;;;;;;;1844800;77;26271;-46
2022/03/02 02:42:03;;;;;;;1.50;1.40;;;;;;;;;;1857497;77;26265;-47
2022/03/02 02:44:31;;;;;;;1.30;1.30;;;;;;;;;;1858194;77;26337;-48
2022/03/02 02:46:59;;;;;;;1.40;1.40;;;;;;;;;;1857795;77;26311;-47
2022/03/02 02:49:27;;;;;;;1.30;1.30;;;;;;;;;;1858036;77;26255;-49
2022/03/02 02:51:54;;;;;;;1.40;1.40;;;;;;;;;;1857830;77;26228;-46
2022/03/02 02:54:22;;;;;;;1.30;1.30;;;;;;;;;;1858060;77;26196;-48
2022/03/02 02:56:49;;;;;;;1.27;1.27;;;;;;;;;;1843549;77;27413;-49
2022/03/02 02:59:17;;;;;;;1.30;1.30;;;;;;;;;;1856851;77;26259;-48
2022/03/02 03:01:44;;;;;;;1.40;1.40;;;;;;;;;;1857390;77;26325;-49
2022/03/02 03:04:12;;;;;;;1.30;1.30;;;;;;;;;;1855935;77;26307;-49
2022/03/02 03:06:39;;;;;;;1.30;1.30;;;;;;;;;;1854023;76;26296;-47
2022/03/02 03:09:07;;;;;;;1.57;1.47;;;;;;;;;;1857986;76;26322;-47
2022/03/02 03:11:36;;;;;;;1.40;1.40;;;;;;;;;;1842585;77;26315;-47
2022/03/02 03:14:04;;;;;;;1.17;1.17;;;;;;;;;;1848881;77;26295;-47
2022/03/02 03:16:32;;;;;;;1.30;1.30;;;;;;;;;;1846468;77;26376;-49
2022/03/02 03:18:59;;;;;;;1.35;1.35;;;;;;;;;;1848926;77;26730;-50
2022/03/02 03:21:27;;;;;;;1.22;1.22;;;;;;;;;;1849055;77;26625;-50
2022/03/02 03:23:54;;;;;;;1.20;1.20;;;;;;;;;;1836702;76;26315;-47
2022/03/02 03:26:21;;;;;;;1.32;1.32;;;;;;;;;;1848964;77;26260;-47
2022/03/02 03:28:49;;;;;;;1.40;1.40;;;;;;;;;;1849092;77;26715;-46
2022/03/02 03:31:17;;;;;;;1.32;1.32;;;;;;;;;;1841387;77;26196;-48
2022/03/02 03:33:44;;;;;;;1.30;1.30;;;;;;;;;;1849217;77;26197;-47
2022/03/02 03:36:11;;;;;;;1.25;1.25;;;;;;;;;;1848993;77;26268;-49
2022/03/02 03:38:38;;;;;;;1.45;1.45;;;;;;;;;;1848708;77;26252;-46
2022/03/02 03:41:06;;;;;;;1.20;1.20;;;;;;;;;;1840007;77;26703;-47
2022/03/02 03:43:33;;;;;;;1.15;1.15;;;;;;;;;;1846989;77;26252;-47
2022/03/02 03:46:01;;;;;;;1.20;1.20;;;;;;;;;;1846621;77;26213;-46
2022/03/02 03:48:28;;;;;;;1.42;1.27;;;;;;;;;;1847989;77;26829;-46
2022/03/02 03:50:55;;;;;;;1.10;1.10;;;;;;;;;;1848671;77;26644;-47
2022/03/02 03:53:23;;;;;;;1.25;1.22;;;;;;;;;;1848491;77;26249;-49
2022/03/02 03:55:50;;;;;;;1.32;1.32;;;;;;;;;;1848203;77;26292;-46
2022/03/02 03:58:17;;;;;;;1.35;1.25;;;;;;;;;;1847399;77;26333;-48
2022/03/02 04:00:45;;;;;;;1.22;1.22;;;;;;;;;;1840149;77;26341;-47
2022/03/02 04:03:12;;;;;;;1.20;1.20;;;;;;;;;;1827362;77;26256;-47
2022/03/02 04:05:39;;;;;;;1.12;1.12;;;;;;;;;;1845203;77;26334;-47
2022/03/02 04:08:08;;;;;;;1.40;1.30;;;;;;;;;;1846752;76;26310;-47
2022/03/02 04:10:36;;;;;;;1.27;1.22;;;;;;;;;;1847776;77;26359;-47
2022/03/02 04:13:03;;;;;;;1.17;1.17;;;;;;;;;;1849145;76;26252;-47
2022/03/02 04:15:30;;;;;;;1.15;1.15;;;;;;;;;;1842918;76;26598;-47
2022/03/02 04:17:58;;;;;;;1.20;1.20;;;;;;;;;;1847237;76;26338;-46
2022/03/02 04:20:25;;;;;;;1.12;1.12;;;;;;;;;;1844033;76;26205;-48
2022/03/02 04:22:52;;;;;;;1.20;1.20;;;;;;;;;;1831306;77;26337;-46
2022/03/02 04:25:19;;;;;;;1.22;1.22;;;;;;;;;;1842012;77;26276;-47
2022/03/02 04:27:47;;;;;;;1.40;1.30;;;;;;;;;;1849205;77;26311;-49
2022/03/02 04:30:14;;;;;;;1.20;1.20;;;;;;;;;;1848699;77;26267;-47
2022/03/02 04:32:42;;;;;;;1.20;1.20;;;;;;;;;;1842899;77;26783;-48
2022/03/02 04:35:10;;;;;;;1.30;1.30;;;;;;;;;;1849141;77;26322;-49
2022/03/02 04:37:38;;;;;;;1.30;1.30;;;;;;;;;;1844397;76;26840;-48
2022/03/02 04:40:07;;;;;;;1.10;1.10;;;;;;;;;;1841758;77;26343;-47
2022/03/02 04:42:35;;;;;;;1.20;1.15;;;;;;;;;;1848120;76;27741;-47
2022/03/02 04:45:03;;;;;;;1.25;1.25;;;;;;;;;;1848240;77;26692;-47
2022/03/02 04:47:30;;;;;;;1.00;1.00;;;;;;;;;;1837110;77;26291;-47
2022/03/02 04:49:58;;;;;;;1.10;1.10;;;;;;;;;;1847945;77;26256;-47
2022/03/02 04:52:25;;;;;;;1.20;1.20;;;;;;;;;;1844448;76;26658;-47
2022/03/02 04:55:09;;;;;;;1.20;1.20;;;;;;;;;;1846138;77;26212;-48
2022/03/02 04:57:38;;;;;;;1.27;1.20;;;;;;;;;;1838102;77;26775;-46
2022/03/02 05:00:07;;;;;;;1.17;1.17;;;;;;;;;;1845925;76;26341;-47
2022/03/02 05:02:34;;;;;;;1.10;1.10;;;;;;;;;;1831362;77;26274;-50
2022/03/02 05:05:02;;;;;;;1.10;1.10;;;;;;;;;;1842421;77;26664;-48
2022/03/02 05:07:29;;;;;;;1.20;1.20;;;;;;;;;;1833807;77;26296;-46
2022/03/02 05:09:57;;;;;;;1.20;1.20;;;;;;;;;;1845086;77;26723;-46
2022/03/02 05:12:24;;;;;;;1.05;1.05;;;;;;;;;;1849111;77;26291;-48
2022/03/02 05:14:51;;;;;;;1.40;1.30;;;;;;;;;;1856708;77;26609;-48
2022/03/02 05:17:18;;;;;;;1.15;1.15;;;;;;;;;;1856390;77;26381;-48
2022/03/02 05:19:46;;;;;;;1.20;1.20;;;;;;;;;;1854194;76;26751;-48
2022/03/02 05:22:14;;;;;;;1.30;1.30;;;;;;;;;;1856265;77;26279;-48
2022/03/02 05:24:42;;;;;;;1.10;1.07;;;;;;;;;;1856063;77;26280;-47
2022/03/02 05:27:09;;;;;;;1.82;1.20;;;;;;;;;;1856242;77;26337;-48
2022/03/02 05:29:37;;;;;;;1.20;1.20;;;;;;;;;;1855735;77;26265;-46
2022/03/02 05:32:05;;;;;;;1.02;1.02;;;;;;;;;;1855793;77;26740;-47
2022/03/02 05:34:32;;;;;;;1.10;1.10;;;;;;;;;;1856336;77;25934;-46
2022/03/02 05:37:00;;;;;;;1.20;1.10;;;;;;;;;;1856318;77;26307;-46
2022/03/02 05:39:28;;;;;;;1.42;1.10;;;;;;;;;;1855429;76;26334;-47
2022/03/02 05:41:56;;;;;;;1.67;1.00;;;;;;;;;;1856176;77;26327;-46
2022/03/02 05:44:23;;;;;;;1.22;1.22;;;;;;;;;;1856061;77;26263;-49
2022/03/02 05:46:51;;;;;;;1.20;1.20;;;;;;;;;;1856500;77;26310;-48
2022/03/02 05:49:18;;;;;;;1.25;1.25;;;;;;;;;;1856332;77;26341;-47
2022/03/02 05:51:45;;;;;;;1.20;1.20;;;;;;;;;;1847732;77;26302;-47
2022/03/02 05:54:13;;;;;;;1.30;1.20;;;;;;;;;;1853842;77;25626;-48
2022/03/02 05:56:41;;;;;;;1.17;1.17;;;;;;;;;;1853610;76;26307;-48
2022/03/02 05:59:09;;;;;;;4.12;1.10;;;;;;;;;;1856914;77;26983;-46
2022/03/02 06:01:37;;;;;;;1.30;1.20;;;;;;;;;;1858925;76;26263;-47
2022/03/02 06:04:08;;;;;;;1.12;1.12;;;;;;;;;;1857126;77;26730;-46
2022/03/02 06:06:36;;;;;;;1.30;1.20;;;;;;;;;;1856484;76;26751;-46
2022/03/02 06:09:05;;;;;;;1.32;1.22;;;;;;;;;;1850508;76;26406;-47
2022/03/02 06:11:32;;;;;;;1.50;1.40;;;;;;;;;;1856973;76;26307;-46
2022/03/02 06:14:00;;;;;;;1.37;1.30;;;;;;;;;;1855866;76;27232;-49
2022/03/02 06:16:28;;;;;;;1.00;1.00;;;;;;;;;;1857411;77;26259;-48
2022/03/02 06:18:56;;;;;;;1.85;1.20;;;;;;;;;;1856816;76;26263;-48
2022/03/02 06:21:24;;;;;;;1.22;1.15;;;;;;;;;;1856981;77;26782;-49
2022/03/02 06:23:52;;;;;;;2.02;1.20;;;;;;;;;;1857465;77;26696;-48
2022/03/02 06:26:19;;;;;;;2.47;1.57;;;;;;;;;;1857449;77;26264;-47
2022/03/02 06:28:47;;;;;;;3.27;1.30;;;;;;;;;;1853105;77;26244;-46
2022/03/02 06:31:14;;;;;;;1.40;1.30;;;;;;;;;;1855882;76;26345;-50
2022/03/02 06:33:41;;;;;;;2.80;1.40;;;;;;;;;;1857433;77;26335;-46
2022/03/02 06:36:09;;;;;;;1.52;1.30;;;;;;;;;;1857593;77;26393;-47
2022/03/02 06:38:36;;;;;;;4.80;2.10;;;;;;;;;;1857299;77;26329;-53
2022/03/02 06:41:05;;;;;;;2.58;1.15;;;;;;;;;;1857368;77;26216;-57
2022/03/02 06:43:34;;;;;;;2.12;1.20;;;;;;;;;;1793268;76;26306;-50
2022/03/02 06:46:03;;;;;;;2.92;1.40;;;;;;;;;;1848582;76;26209;-49
2022/03/02 06:48:32;;;;;;;1.17;1.17;;;;;;;;;;1855186;77;26877;-48
2022/03/02 06:51:01;;;;;;;3.72;1.20;;;;;;;;;;1856523;76;26577;-50
2022/03/02 06:53:33;;;;;;;1.30;1.30;;;;;;;;;;1854979;77;26228;-52
2022/03/02 06:56:01;;;;;;;2.30;1.40;;;;;;;;;;1856717;76;26296;-47
2022/03/02 06:58:29;;;;;;;1.40;1.30;;;;;;;;;;1855444;77;26311;-49
2022/03/02 07:00:57;;;;;;;1.32;1.20;;;;;;;;;;1856482;77;26296;-49
2022/03/02 07:03:26;;;;;;;1.70;1.30;;;;;;;;;;1855937;77;26418;-52
2022/03/02 07:05:54;;;;;;;4.35;1.30;;;;;;;;;;1850247;77;26307;-51
2022/03/02 07:08:22;;;;;;;1.37;1.27;;;;;;;;;;1855742;76;26304;-52
2022/03/02 07:10:51;;;;;;;1.20;1.20;;;;;;;;;;1854905;76;26247;-51
2022/03/02 07:13:18;;;;;;;1.87;1.40;;;;;;;;;;1854309;77;26264;-49
2022/03/02 07:15:46;;;;;;;1.40;1.30;;;;;;;;;;1858077;76;26743;-50
2022/03/02 07:18:15;;;;;;;1.40;1.30;;;;;;;;;;1856733;76;26857;-57
2022/03/02 07:20:44;;;;;;;7.20;1.75;;;;;;;;;;1857048;76;26267;-48
2022/03/02 07:23:13;;;;;;;1.70;1.30;;;;;;;;;;1857300;76;26335;-49
2022/03/02 07:25:42;;;;;;;1.50;1.40;;;;;;;;;;1857277;77;26260;-48
2022/03/02 07:28:14;;;;;;;1.45;1.35;;;;;;;;;;1853282;77;26342;-50
2022/03/02 07:30:43;;;;;;;1.35;1.20;;;;;;;;;;1853646;77;26315;-55
2022/03/02 07:33:12;;;;;;;1.40;1.30;;;;;;;;;;1854678;77;26310;-57
2022/03/02 07:35:40;;;;;;;1.65;1.17;;;;;;;;;;1856112;77;26684;-54
2022/03/02 07:38:08;;;;;;;1.45;1.25;;;;;;;;;;1851684;76;26287;-50
2022/03/02 07:40:35;;;;;;;1.30;1.30;;;;;;;;;;1855452;77;25616;-53
2022/03/02 07:43:03;;;;;;;1.52;1.45;;;;;;;;;;1856571;77;26267;-52
2022/03/02 07:45:30;;;;;;;1.12;1.10;;;;;;;;;;1857557;76;26318;-50
2022/03/02 07:47:58;;;;;;;1.20;1.20;;;;;;;;;;1855590;77;26277;-49
2022/03/02 07:50:25;;;;;;;1.30;1.30;;;;;;;;;;1857186;76;26346;-52
2022/03/02 07:52:53;;;;;;;1.20;1.20;;;;;;;;;;1857089;77;26760;-53
2022/03/02 07:55:21;;;;;;;1.52;1.35;;;;;;;;;;1857709;76;26275;-48
2022/03/02 07:57:55;;;;;;;1.50;1.30;;;;;;;;;;1853174;77;26323;-55
2022/03/02 08:00:22;;;;;;;1.10;1.10;;;;;;;;;;1850883;76;26307;-51
2022/03/02 08:02:51;;;;;;;1.35;1.25;;;;;;;;;;1850581;77;26172;-51
2022/03/02 08:05:20;;;;;;;1.17;1.17;;;;;;;;;;1855241;76;26244;-56
2022/03/02 08:07:49;;;;;;;1.10;1.10;;;;;;;;;;1855968;76;26276;-49
2022/03/02 08:10:17;;;;;;;1.20;1.20;;;;;;;;;;1855979;76;26214;-51
2022/03/02 08:12:45;;;;;;;1.20;1.20;;;;;;;;;;1849862;76;26350;-51
2022/03/02 08:15:13;;;;;;;1.02;1.02;;;;;;;;;;1843681;76;26385;-49
2022/03/02 08:17:42;;;;;;;1.35;1.12;;;;;;;;;;1844207;77;26735;-52
2022/03/02 08:20:10;;;;;;;1.40;1.25;;;;;;;;;;1842694;76;26707;-50
2022/03/02 08:22:38;;;;;;;1.20;1.10;;;;;;;;;;1837569;77;27384;-52
2022/03/02 08:25:07;;;;;;;1.15;1.15;;;;;;;;;;1846961;77;26334;-49
2022/03/02 08:27:35;;;;;;;1.12;1.12;;;;;;;;;;1839137;77;26279;-50
2022/03/02 08:30:06;;;;;;;1.37;1.12;;;;;;;;;;1847014;77;26295;-55
2022/03/02 08:32:37;;;;;;;1.15;1.15;;;;;;;;;;1847618;77;26278;-48
2022/03/02 08:35:05;;;;;;;2.25;1.30;;;;;;;;;;1847869;77;26271;-49
2022/03/02 08:37:33;;;;;;;1.57;1.20;;;;;;;;;;1847294;77;26260;-49
2022/03/02 08:40:00;;;;;;;1.17;0.93;;;;;;;;;;1844895;77;26251;-48
2022/03/02 08:42:28;;;;;;;1.00;1.00;;;;;;;;;;1847618;76;26292;-51
2022/03/02 08:44:56;;;;;;;1.20;1.10;;;;;;;;;;1845790;76;27866;-56
2022/03/02 08:47:23;;;;;;;1.62;1.20;;;;;;;;;;1845172;76;26692;-49
2022/03/02 08:49:51;;;;;;;1.07;1.05;;;;;;;;;;1844567;77;26370;-47
2022/03/02 08:52:20;;;;;;;1.20;1.20;;;;;;;;;;1842405;76;28208;-49
2022/03/02 08:54:48;;;;;;;1.17;1.17;;;;;;;;;;1839072;77;26368;-44
2022/03/02 08:57:16;;;;;;;1.17;1.10;;;;;;;;;;1848403;77;26218;-50
2022/03/02 08:59:44;;;;;;;2.90;1.20;;;;;;;;;;1845470;76;27024;-53
2022/03/02 09:02:11;;;;;;;1.47;1.37;;;;;;;;;;1844140;76;26275;-47
2022/03/02 09:04:38;;;;;;;1.45;1.10;;;;;;;;;;1842770;76;26282;-47
2022/03/02 09:07:06;;;;;;;1.30;1.20;;;;;;;;;;1847972;77;26228;-48
2022/03/02 09:09:34;;;;;;;2.72;1.10;;;;;;;;;;1851399;76;27354;-48
2022/03/02 09:12:03;;;;;;;1.10;1.10;;;;;;;;;;1850044;77;26264;-50
2022/03/02 09:14:30;;;;;;;1.85;1.10;;;;;;;;;;1848931;77;26385;-52
2022/03/02 09:16:59;;;;;;;1.10;1.10;;;;;;;;;;1848151;76;26322;-52
2022/03/02 09:19:26;;;;;;;1.10;1.10;;;;;;;;;;1848219;77;26280;-51
2022/03/02 09:21:53;;;;;;;0.93;0.93;;;;;;;;;;1846987;77;26776;-47
2022/03/02 09:24:22;;;;;;;1.10;1.10;;;;;;;;;;1847753;77;26275;-48
2022/03/02 09:26:50;;;;;;;1.00;1.00;;;;;;;;;;1828731;77;26806;-46
2022/03/02 09:29:18;;;;;;;1.00;1.00;;;;;;;;;;1848663;77;26303;-48
2022/03/02 09:31:47;;;;;;;1.60;1.20;;;;;;;;;;1836944;76;26276;-50
2022/03/02 09:34:15;;;;;;;0.80;0.80;;;;;;;;;;1846150;77;26276;-51
2022/03/02 09:36:44;;;;;;;1.00;1.00;;;;;;;;;;1848178;77;26272;-47
2022/03/02 09:39:12;;;;;;;0.93;0.93;;;;;;;;;;1847349;77;26763;-49
2022/03/02 09:41:48;;;;;;;0.80;0.80;;;;;;;;;;1846439;76;26288;-47
2022/03/02 09:44:13;;;;;;;1.10;1.10;;;;;;;;;;1844458;77;26684;-49
2022/03/02 09:46:40;;;;;;;1.00;1.00;;;;;;;;;;1845268;77;26819;-57
2022/03/02 09:49:09;;;;;;;2.17;1.00;;;;;;;;;;1851352;77;26359;-46
2022/03/02 09:51:38;;;;;;;1.10;1.10;;;;;;;;;;1851255;77;26341;-47
2022/03/02 09:54:08;;;;;;;1.15;0.80;;;;;;;;;;1845356;77;26282;-48
2022/03/02 09:56:36;;;;;;;0.90;0.90;;;;;;;;;;1859092;76;26362;-45
2022/03/02 09:59:07;;;;;;;1.10;1.10;;;;;;;;;;1835722;77;26271;-47
2022/03/02 10:01:36;;;;;;;0.90;0.90;;;;;;;;;;1835838;77;26304;-55
2022/03/02 10:04:07;;;;;;;0.90;0.90;;;;;;;;;;1834368;77;26330;-57
2022/03/02 10:06:36;;;;;;;1.10;1.10;;;;;;;;;;1838572;77;26280;-54
2022/03/02 10:09:03;;;;;;;0.90;0.90;;;;;;;;;;1848810;77;26287;-48
2022/03/02 10:11:32;;;;;;;0.88;0.88;;;;;;;;;;1848578;77;26742;-52
2022/03/02 10:13:59;;;;;;;0.90;0.90;;;;;;;;;;1853485;77;26362;-45
2022/03/02 10:16:27;;;;;;;2.05;1.00;;;;;;;;;;1862052;77;26325;-45
2022/03/02 10:18:56;;;;;;;0.90;0.90;;;;;;;;;;1860029;77;26299;-49
2022/03/02 10:21:25;;;;;;;1.00;1.00;;;;;;;;;;1848857;77;26727;-55
2022/03/02 10:23:54;;;;;;;2.87;0.85;;;;;;;;;;1861613;77;26322;-54
2022/03/02 10:26:25;;;;;;;1.02;1.00;;;;;;;;;;1859220;77;26283;-54
2022/03/02 10:29:00;;;;;;;1.17;1.10;;;;;;;;;;1860082;77;26322;-54
2022/03/02 10:31:47;;;;;;;1.27;1.00;;;;;;;;;;1846122;77;28221;-48
2022/03/02 10:34:28;;;;;;;0.90;0.90;;;;;;;;;;1858494;77;26789;-46
2022/03/02 10:37:03;;;;;;;0.98;0.82;;;;;;;;;;1857922;77;26283;-51
2022/03/02 10:39:50;;;;;;;0.90;0.90;;;;;;;;;;1858226;76;26311;-49
2022/03/02 10:42:19;;;;;;;0.90;0.90;;;;;;;;;;1857564;77;27430;-46
2022/03/02 10:44:48;;;;;;;0.90;0.90;;;;;;;;;;1859758;77;26762;-46
2022/03/02 10:47:17;;;;;;;1.00;1.00;;;;;;;;;;1858122;77;26341;-50
2022/03/02 10:49:45;;;;;;;0.98;0.98;;;;;;;;;;1861492;77;26537;-51
2022/03/02 10:52:18;;;;;;;0.90;0.90;;;;;;;;;;1862874;77;26227;-46
2022/03/02 10:54:44;;;;;;;1.30;0.90;;;;;;;;;;1853189;77;26357;-52
2022/03/02 10:57:13;;;;;;;0.85;0.85;;;;;;;;;;1862926;76;26719;-49
2022/03/02 10:59:42;;;;;;;0.80;0.80;;;;;;;;;;1858080;76;27389;-48
2022/03/02 11:02:10;;;;;;;0.90;0.90;;;;;;;;;;1859043;77;26381;-47
2022/03/02 11:04:44;;;;;;;0.90;0.90;;;;;;;;;;1857063;75;26224;-49
2022/03/02 11:07:12;;;;;;;0.90;0.90;;;;;;;;;;1859817;77;26275;-53
2022/03/02 11:09:41;;;;;;;0.80;0.80;;;;;;;;;;1863000;76;26714;-53
2022/03/02 11:12:10;;;;;;;3.65;1.00;;;;;;;;;;1863412;77;26341;-44
2022/03/02 11:14:38;;;;;;;0.93;0.93;;;;;;;;;;1850718;76;26291;-50
2022/03/02 11:17:13;;;;;;;1.15;1.00;;;;;;;;;;1835730;77;28092;-57
2022/03/02 11:19:44;;;;;;;0.93;0.93;;;;;;;;;;1846935;77;26334;-51
2022/03/02 11:22:13;;;;;;;0.90;0.90;;;;;;;;;;1841986;76;26726;-56
2022/03/02 11:24:41;;;;;;;1.15;1.00;;;;;;;;;;1843355;77;26620;-46
2022/03/02 11:27:09;;;;;;;1.15;0.90;;;;;;;;;;1844867;76;26778;-44
2022/03/02 11:29:41;;;;;;;1.85;0.90;;;;;;;;;;1846331;77;26878;-48
2022/03/02 11:32:14;;;;;;;0.85;0.85;;;;;;;;;;1847473;77;26956;-50
2022/03/02 11:34:44;;;;;;;0.98;0.90;;;;;;;;;;1845274;77;26324;-44
2022/03/02 11:37:13;;;;;;;0.90;0.90;;;;;;;;;;1847354;77;26960;-47
2022/03/02 11:39:42;;;;;;;0.85;0.85;;;;;;;;;;1847117;77;26717;-44
2022/03/02 11:42:09;;;;;;;1.00;1.00;;;;;;;;;;1843630;77;26334;-44
2022/03/02 11:44:41;;;;;;;1.02;1.02;;;;;;;;;;1842614;77;26805;-46
2022/03/02 11:47:10;;;;;;;1.90;1.10;;;;;;;;;;1844452;77;26720;-45
2022/03/02 11:49:39;;;;;;;0.90;0.90;;;;;;;;;;1847246;77;26291;-46
2022/03/02 11:52:09;;;;;;;1.10;1.10;;;;;;;;;;1841711;77;26680;-50
2022/03/02 11:54:46;;;;;;;0.90;0.90;;;;;;;;;;1845038;77;26327;-50
2022/03/02 11:57:16;;;;;;;0.90;0.90;;;;;;;;;;1843697;77;26286;-54
2022/03/02 11:59:43;;;;;;;0.80;0.80;;;;;;;;;;1846776;77;26777;-47
2022/03/02 12:02:13;;;;;;;0.90;0.90;;;;;;;;;;1845580;77;26287;-59
2022/03/02 12:04:40;;;;;;;0.95;0.95;;;;;;;;;;1847197;77;26303;-48
2022/03/02 12:07:08;;;;;;;2.00;0.90;;;;;;;;;;1844914;77;26294;-47
2022/03/02 12:09:37;;;;;;;0.80;0.80;;;;;;;;;;1845105;77;26335;-53
2022/03/02 12:12:21;;;;;;;0.98;0.95;;;;;;;;;;1830520;77;28202;-46
2022/03/02 12:14:48;;;;;;;0.98;0.98;;;;;;;;;;1846094;77;26409;-51
2022/03/02 12:17:17;;;;;;;1.10;1.10;;;;;;;;;;1853916;77;26321;-47
2022/03/02 12:19:49;;;;;;;1.00;1.00;;;;;;;;;;1851709;76;27456;-57
2022/03/02 12:22:17;;;;;;;1.50;0.80;;;;;;;;;;1853204;76;26279;-52
2022/03/02 12:24:46;;;;;;;0.90;0.90;;;;;;;;;;1856548;77;26345;-55
2022/03/02 12:27:14;;;;;;;0.90;0.90;;;;;;;;;;1856257;77;26802;-51
2022/03/02 12:29:42;;;;;;;0.78;0.78;;;;;;;;;;1855743;77;26404;-50
2022/03/02 12:32:16;;;;;;;0.80;0.80;;;;;;;;;;1815338;78;26274;-56
2022/03/02 12:34:48;;;;;;;1.00;1.00;;;;;;;;;;1791379;80;26372;-45
2022/03/02 12:37:16;;;;;;;0.80;0.80;;;;;;;;;;1785449;80;27271;-46
2022/03/02 12:39:44;;;;;;;0.80;0.80;;;;;;;;;;1787474;79;26326;-47
2022/03/02 12:42:12;;;;;;;0.80;0.80;;;;;;;;;;1784631;80;27082;-51
2022/03/02 12:44:40;;;;;;;0.72;0.72;;;;;;;;;;1786375;80;26329;-55
2022/03/02 12:47:09;;;;;;;0.70;0.70;;;;;;;;;;1782320;80;26231;-51
2022/03/02 12:49:37;;;;;;;0.90;0.90;;;;;;;;;;1791741;79;26407;-48
2022/03/02 12:52:06;;;;;;;0.80;0.80;;;;;;;;;;1808455;78;26687;-51
2022/03/02 12:54:34;;;;;;;0.80;0.80;;;;;;;;;;1821333;78;26719;-49
2022/03/02 12:57:03;;;;;;;0.80;0.80;;;;;;;;;;1787167;80;26804;-46
2022/03/02 12:59:31;;;;;;;0.80;0.80;;;;;;;;;;1779560;79;28911;-50
2022/03/02 13:02:00;;;;;;;0.80;0.80;;;;;;;;;;1786478;80;26230;-57
2022/03/02 13:04:47;;;;;;;0.70;0.70;;;;;;;;;;1785764;80;26282;-49
2022/03/02 13:07:15;;;;;;;0.85;0.85;;;;;;;;;;1784200;79;26334;-49
2022/03/02 13:09:47;;;;;;;1.40;0.75;;;;;;;;;;1820324;78;26240;-47
2022/03/02 13:12:25;;;;;;;0.70;0.70;;;;;;;;;;1812737;79;26397;-50
2022/03/02 13:14:52;;;;;;;0.60;0.60;;;;;;;;;;1790770;77;26316;-48
2022/03/02 13:17:21;;;;;;;0.70;0.70;;;;;;;;;;1817393;77;26336;-56
2022/03/02 13:19:52;;;;;;;0.80;0.80;;;;;;;;;;1817225;77;26792;-51
2022/03/02 13:22:24;;;;;;;0.68;0.68;;;;;;;;;;1816067;77;26312;-57
2022/03/02 13:24:55;;;;;;;0.80;0.80;;;;;;;;;;1818791;77;26264;-58
2022/03/02 13:27:23;;;;;;;0.80;0.80;;;;;;;;;;1815902;79;26282;-49
2022/03/02 13:29:58;;;;;;;0.80;0.80;;;;;;;;;;1811695;79;26705;-51
2022/03/02 13:32:47;;;;;;;0.70;0.70;;;;;;;;;;1770922;81;26738;-52
2022/03/02 13:35:15;;;;;;;0.80;0.80;;;;;;;;;;1795053;80;26315;-54
2022/03/02 13:38:01;;;;;;;0.57;0.57;;;;;;;;;;1794726;79;26299;-52
2022/03/02 13:40:36;;;;;;;0.95;0.70;;;;;;;;;;1814172;79;26239;-58
2022/03/02 13:43:07;;;;;;;0.80;0.80;;;;;;;;;;1781322;79;26408;-54
2022/03/02 13:45:36;;;;;;;0.60;0.60;;;;;;;;;;1783962;80;26368;-56
2022/03/02 13:48:21;;;;;;;0.80;0.80;;;;;;;;;;1784543;80;26824;-55
2022/03/02 13:51:01;;;;;;;0.80;0.80;;;;;;;;;;1786423;79;26833;-54
2022/03/02 13:53:36;;;;;;;0.78;0.78;;;;;;;;;;1781860;80;26282;-57
2022/03/02 13:56:08;;;;;;;0.70;0.70;;;;;;;;;;1782768;79;26274;-55
2022/03/02 13:58:37;;;;;;;0.60;0.60;;;;;;;;;;1776051;79;26323;-55
2022/03/02 14:01:15;;;;;;;0.60;0.60;;;;;;;;;;1783722;79;26282;-49
2022/03/02 14:03:43;;;;;;;0.70;0.70;;;;;;;;;;1776495;80;26396;-50
2022/03/02 14:06:12;;;;;;;1.72;0.57;;;;;;;;;;1781789;80;26278;-50
2022/03/02 14:08:50;;;;;;;0.57;0.57;;;;;;;;;;1780825;80;26312;-48
2022/03/02 14:11:35;;;;;;;0.60;0.60;;;;;;;;;;1781716;80;26402;-48
2022/03/02 14:14:04;;;;;;;0.62;0.62;;;;;;;;;;1781989;80;26298;-59
2022/03/02 14:16:31;;;;;;;0.70;0.70;;;;;;;;;;1766281;79;28942;-51
2022/03/02 14:19:09;;;;;;;1.02;0.70;;;;;;;;;;1836374;77;28266;-50
2022/03/02 14:21:37;;;;;;;0.70;0.70;;;;;;;;;;1844701;77;26251;-53
2022/03/02 14:24:12;;;;;;;0.62;0.62;;;;;;;;;;1847946;77;26315;-47
2022/03/02 14:26:41;;;;;;;0.60;0.60;;;;;;;;;;1846251;77;26370;-51
2022/03/02 14:29:10;;;;;;;0.50;0.50;;;;;;;;;;1803724;77;26688;-48
2022/03/02 14:31:38;;;;;;;0.70;0.70;;;;;;;;;;1844519;77;26711;-45
2022/03/02 14:34:06;;;;;;;0.95;0.75;;;;;;;;;;1836301;77;28625;-48
2022/03/02 14:36:33;;;;;;;0.70;0.70;;;;;;;;;;1845911;77;26696;-53
2022/03/02 14:39:02;;;;;;;0.68;0.68;;;;;;;;;;1847442;77;26361;-49
2022/03/02 14:41:29;;;;;;;0.60;0.60;;;;;;;;;;1848333;76;26401;-50
2022/03/02 14:44:00;;;;;;;0.70;0.70;;;;;;;;;;1834396;77;26332;-56
2022/03/02 14:46:27;;;;;;;0.60;0.60;;;;;;;;;;1846119;77;26421;-55
2022/03/02 14:48:56;;;;;;;0.65;0.65;;;;;;;;;;1840551;77;26263;-47
2022/03/02 14:51:24;;;;;;;0.75;0.75;;;;;;;;;;1846616;77;26292;-51
2022/03/02 14:53:52;;;;;;;0.50;0.50;;;;;;;;;;1847999;76;26280;-50